sensor_id;sensor_type;location;lat;lon;timestamp;temperature;humidity
69261;DHT22;56378;52.404;20.816;2022-11-20T00:00:27;-2.70;69.30
69261;DHT22;56378;52.404;20.816;2022-11-20T00:02:53;-2.70;69.30
69261;DHT22;56378;52.404;20.816;2022-11-20T00:05:18;-2.70;69.20
69261;DHT22;56378;52.404;20.816;2022-11-20T00:07:45;-2.70;69.40
69261;DHT22;56378;52.404;20.816;2022-11-20T00:10:10;-2.70;69.50
69261;DHT22;56378;52.404;20.816;2022-11-20T00:12:36;-2.70;69.60
69261;DHT22;56378;52.404;20.816;2022-11-20T00:15:02;-2.70;69.60
69261;DHT22;56378;52.404;20.816;2022-11-20T00:17:28;-2.70;69.40
69261;DHT22;56378;52.404;20.816;2022-11-20T00:19:54;-2.70;69.10
69261;DHT22;56378;52.404;20.816;2022-11-20T00:22:19;-2.80;69.20
69261;DHT22;56378;52.404;20.816;2022-11-20T00:24:45;-2.80;69.30
69261;DHT22;56378;52.404;20.816;2022-11-20T00:27:12;-2.80;69.20
69261;DHT22;56378;52.404;20.816;2022-11-20T00:29:38;-2.90;69.30
69261;DHT22;56378;52.404;20.816;2022-11-20T00:32:04;-2.90;69.40
69261;DHT22;56378;52.404;20.816;2022-11-20T00:34:30;-2.90;69.40
69261;DHT22;56378;52.404;20.816;2022-11-20T00:36:55;-3.00;69.60
69261;DHT22;56378;52.404;20.816;2022-11-20T00:39:21;-2.90;69.80
69261;DHT22;56378;52.404;20.816;2022-11-20T00:41:47;-2.90;70.00
69261;DHT22;56378;52.404;20.816;2022-11-20T00:44:13;-2.90;69.90
69261;DHT22;56378;52.404;20.816;2022-11-20T00:46:38;-2.90;69.90
69261;DHT22;56378;52.404;20.816;2022-11-20T00:49:04;-2.90;70.10
69261;DHT22;56378;52.404;20.816;2022-11-20T00:51:30;-2.80;70.30
69261;DHT22;56378;52.404;20.816;2022-11-20T00:53:58;-2.80;70.40
69261;DHT22;56378;52.404;20.816;2022-11-20T00:56:25;-2.80;70.10
69261;DHT22;56378;52.404;20.816;2022-11-20T00:58:51;-2.70;70.10
69261;DHT22;56378;52.404;20.816;2022-11-20T01:01:19;-2.70;69.70
69261;DHT22;56378;52.404;20.816;2022-11-20T01:03:47;-2.70;70.00
69261;DHT22;56378;52.404;20.816;2022-11-20T01:06:16;-2.70;70.10
69261;DHT22;56378;52.404;20.816;2022-11-20T01:08:43;-2.70;69.90
69261;DHT22;56378;52.404;20.816;2022-11-20T01:11:12;-2.60;70.10
69261;DHT22;56378;52.404;20.816;2022-11-20T01:13:39;-2.60;70.10
69261;DHT22;56378;52.404;20.816;2022-11-20T01:16:14;-2.60;69.90
69261;DHT22;56378;52.404;20.816;2022-11-20T01:18:42;-2.60;70.00
69261;DHT22;56378;52.404;20.816;2022-11-20T01:21:10;-2.60;70.00
69261;DHT22;56378;52.404;20.816;2022-11-20T01:23:38;-2.60;70.10
69261;DHT22;56378;52.404;20.816;2022-11-20T01:26:08;-2.60;70.10
69261;DHT22;56378;52.404;20.816;2022-11-20T01:28:34;-2.60;70.40
69261;DHT22;56378;52.404;20.816;2022-11-20T01:31:00;-2.50;70.30
69261;DHT22;56378;52.404;20.816;2022-11-20T01:33:27;-2.50;70.20
69261;DHT22;56378;52.404;20.816;2022-11-20T01:35:53;-2.50;70.20
69261;DHT22;56378;52.404;20.816;2022-11-20T01:38:19;-2.50;70.00
69261;DHT22;56378;52.404;20.816;2022-11-20T01:40:57;-2.50;70.30
69261;DHT22;56378;52.404;20.816;2022-11-20T01:43:23;-2.40;70.40
69261;DHT22;56378;52.404;20.816;2022-11-20T01:48:28;-2.40;70.10
69261;DHT22;56378;52.404;20.816;2022-11-20T01:50:55;-2.40;70.10
69261;DHT22;56378;52.404;20.816;2022-11-20T01:53:27;-2.40;69.70
69261;DHT22;56378;52.404;20.816;2022-11-20T01:56:00;-2.40;69.50
69261;DHT22;56378;52.404;20.816;2022-11-20T01:58:30;-2.40;69.80
69261;DHT22;56378;52.404;20.816;2022-11-20T02:00:57;-2.30;69.80
69261;DHT22;56378;52.404;20.816;2022-11-20T02:03:23;-2.30;70.00
69261;DHT22;56378;52.404;20.816;2022-11-20T02:08:40;-2.30;69.60
69261;DHT22;56378;52.404;20.816;2022-11-20T02:11:06;-2.20;69.40
69261;DHT22;56378;52.404;20.816;2022-11-20T02:13:33;-2.30;69.50
69261;DHT22;56378;52.404;20.816;2022-11-20T02:16:26;-2.20;69.90
69261;DHT22;56378;52.404;20.816;2022-11-20T02:18:54;-2.20;69.60
69261;DHT22;56378;52.404;20.816;2022-11-20T02:21:33;-2.20;69.40
69261;DHT22;56378;52.404;20.816;2022-11-20T02:24:04;-2.20;69.50
69261;DHT22;56378;52.404;20.816;2022-11-20T02:26:33;-2.20;69.40
69261;DHT22;56378;52.404;20.816;2022-11-20T02:29:00;-2.20;69.40
69261;DHT22;56378;52.404;20.816;2022-11-20T02:31:27;-2.20;69.30
69261;DHT22;56378;52.404;20.816;2022-11-20T02:33:59;-2.20;69.00
69261;DHT22;56378;52.404;20.816;2022-11-20T02:36:27;-2.20;69.20
69261;DHT22;56378;52.404;20.816;2022-11-20T02:38:54;-2.20;69.10
69261;DHT22;56378;52.404;20.816;2022-11-20T02:41:20;-2.10;68.70
69261;DHT22;56378;52.404;20.816;2022-11-20T02:43:45;-2.10;68.80
69261;DHT22;56378;52.404;20.816;2022-11-20T02:46:11;-2.10;68.80
69261;DHT22;56378;52.404;20.816;2022-11-20T02:48:37;-2.10;69.00
69261;DHT22;56378;52.404;20.816;2022-11-20T02:51:03;-2.10;68.80
69261;DHT22;56378;52.404;20.816;2022-11-20T02:53:28;-2.10;68.70
69261;DHT22;56378;52.404;20.816;2022-11-20T02:55:54;-2.10;68.90
69261;DHT22;56378;52.404;20.816;2022-11-20T02:58:20;-2.10;68.80
69261;DHT22;56378;52.404;20.816;2022-11-20T03:00:46;-2.10;68.90
69261;DHT22;56378;52.404;20.816;2022-11-20T03:03:12;-2.10;68.80
69261;DHT22;56378;52.404;20.816;2022-11-20T03:05:37;-2.10;69.00
69261;DHT22;56378;52.404;20.816;2022-11-20T03:08:03;-2.20;69.20
69261;DHT22;56378;52.404;20.816;2022-11-20T03:10:29;-2.10;69.30
69261;DHT22;56378;52.404;20.816;2022-11-20T03:12:56;-2.20;69.30
69261;DHT22;56378;52.404;20.816;2022-11-20T03:15:28;-2.10;69.10
69261;DHT22;56378;52.404;20.816;2022-11-20T03:17:54;-2.20;69.30
69261;DHT22;56378;52.404;20.816;2022-11-20T03:20:21;-2.10;69.20
69261;DHT22;56378;52.404;20.816;2022-11-20T03:22:47;-2.20;69.30
69261;DHT22;56378;52.404;20.816;2022-11-20T03:25:13;-2.20;69.40
69261;DHT22;56378;52.404;20.816;2022-11-20T03:27:38;-2.20;69.50
69261;DHT22;56378;52.404;20.816;2022-11-20T03:30:04;-2.20;69.60
69261;DHT22;56378;52.404;20.816;2022-11-20T03:32:31;-2.20;69.50
69261;DHT22;56378;52.404;20.816;2022-11-20T03:34:56;-2.10;69.30
69261;DHT22;56378;52.404;20.816;2022-11-20T03:37:22;-2.20;69.40
69261;DHT22;56378;52.404;20.816;2022-11-20T03:39:48;-2.10;69.50
69261;DHT22;56378;52.404;20.816;2022-11-20T03:42:13;-2.10;69.40
69261;DHT22;56378;52.404;20.816;2022-11-20T03:44:58;-2.10;69.60
69261;DHT22;56378;52.404;20.816;2022-11-20T03:47:23;-2.10;69.50
69261;DHT22;56378;52.404;20.816;2022-11-20T03:49:49;-2.10;69.60
69261;DHT22;56378;52.404;20.816;2022-11-20T03:52:15;-2.10;69.60
69261;DHT22;56378;52.404;20.816;2022-11-20T03:54:41;-2.10;69.50
69261;DHT22;56378;52.404;20.816;2022-11-20T03:57:06;-2.10;69.60
69261;DHT22;56378;52.404;20.816;2022-11-20T03:59:32;-2.10;69.40
69261;DHT22;56378;52.404;20.816;2022-11-20T04:01:58;-2.20;69.70
69261;DHT22;56378;52.404;20.816;2022-11-20T04:04:23;-2.20;70.00
69261;DHT22;56378;52.404;20.816;2022-11-20T04:06:49;-2.20;69.90
69261;DHT22;56378;52.404;20.816;2022-11-20T04:09:16;-2.20;70.40
69261;DHT22;56378;52.404;20.816;2022-11-20T04:11:41;-2.20;70.50
69261;DHT22;56378;52.404;20.816;2022-11-20T04:14:13;-2.20;70.00
69261;DHT22;56378;52.404;20.816;2022-11-20T04:16:39;-2.20;70.00
69261;DHT22;56378;52.404;20.816;2022-11-20T04:19:10;-2.10;70.00
69261;DHT22;56378;52.404;20.816;2022-11-20T04:21:36;-2.10;69.50
69261;DHT22;56378;52.404;20.816;2022-11-20T04:24:01;-2.20;69.30
69261;DHT22;56378;52.404;20.816;2022-11-20T04:26:29;-2.20;69.00
69261;DHT22;56378;52.404;20.816;2022-11-20T04:28:55;-2.30;68.90
69261;DHT22;56378;52.404;20.816;2022-11-20T04:31:23;-2.40;69.00
69261;DHT22;56378;52.404;20.816;2022-11-20T04:33:50;-2.40;69.50
69261;DHT22;56378;52.404;20.816;2022-11-20T04:36:24;-2.40;69.60
69261;DHT22;56378;52.404;20.816;2022-11-20T04:38:54;-2.50;69.60
69261;DHT22;56378;52.404;20.816;2022-11-20T04:41:21;-2.50;69.70
69261;DHT22;56378;52.404;20.816;2022-11-20T04:43:48;-2.60;69.80
69261;DHT22;56378;52.404;20.816;2022-11-20T04:46:15;-2.70;70.00
69261;DHT22;56378;52.404;20.816;2022-11-20T04:48:41;-2.70;70.30
69261;DHT22;56378;52.404;20.816;2022-11-20T04:51:07;-2.70;70.10
69261;DHT22;56378;52.404;20.816;2022-11-20T04:53:33;-2.70;70.60
69261;DHT22;56378;52.404;20.816;2022-11-20T04:56:04;-2.80;71.00
69261;DHT22;56378;52.404;20.816;2022-11-20T04:58:30;-2.70;70.90
69261;DHT22;56378;52.404;20.816;2022-11-20T05:01:08;-2.70;71.10
69261;DHT22;56378;52.404;20.816;2022-11-20T05:03:34;-2.70;71.00
69261;DHT22;56378;52.404;20.816;2022-11-20T05:06:01;-2.70;71.00
69261;DHT22;56378;52.404;20.816;2022-11-20T05:08:28;-2.70;71.10
69261;DHT22;56378;52.404;20.816;2022-11-20T05:11:02;-2.70;71.40
69261;DHT22;56378;52.404;20.816;2022-11-20T05:13:28;-2.80;71.30
69261;DHT22;56378;52.404;20.816;2022-11-20T05:15:54;-2.80;71.20
69261;DHT22;56378;52.404;20.816;2022-11-20T05:18:20;-2.90;70.80
69261;DHT22;56378;52.404;20.816;2022-11-20T05:20:46;-2.90;71.30
69261;DHT22;56378;52.404;20.816;2022-11-20T05:23:11;-3.00;71.30
69261;DHT22;56378;52.404;20.816;2022-11-20T05:25:37;-3.00;71.40
69261;DHT22;56378;52.404;20.816;2022-11-20T05:28:03;-3.10;71.50
69261;DHT22;56378;52.404;20.816;2022-11-20T05:30:29;-3.20;71.80
69261;DHT22;56378;52.404;20.816;2022-11-20T05:32:54;-3.20;72.10
69261;DHT22;56378;52.404;20.816;2022-11-20T05:35:20;-3.30;72.30
69261;DHT22;56378;52.404;20.816;2022-11-20T05:37:46;-3.30;71.80
69261;DHT22;56378;52.404;20.816;2022-11-20T05:40:12;-3.30;72.40
69261;DHT22;56378;52.404;20.816;2022-11-20T05:42:37;-3.40;72.50
69261;DHT22;56378;52.404;20.816;2022-11-20T05:45:04;-3.40;72.70
69261;DHT22;56378;52.404;20.816;2022-11-20T05:47:34;-3.40;72.70
69261;DHT22;56378;52.404;20.816;2022-11-20T05:50:00;-3.50;72.40
69261;DHT22;56378;52.404;20.816;2022-11-20T05:52:30;-3.60;73.10
69261;DHT22;56378;52.404;20.816;2022-11-20T05:54:56;-3.60;73.50
69261;DHT22;56378;52.404;20.816;2022-11-20T05:57:22;-3.70;73.50
69261;DHT22;56378;52.404;20.816;2022-11-20T05:59:48;-3.70;73.80
69261;DHT22;56378;52.404;20.816;2022-11-20T06:02:13;-3.70;73.40
69261;DHT22;56378;52.404;20.816;2022-11-20T06:04:39;-3.80;73.70
69261;DHT22;56378;52.404;20.816;2022-11-20T06:07:05;-3.80;73.90
69261;DHT22;56378;52.404;20.816;2022-11-20T06:09:32;-3.80;73.60
69261;DHT22;56378;52.404;20.816;2022-11-20T06:11:57;-3.90;74.20
69261;DHT22;56378;52.404;20.816;2022-11-20T06:14:23;-3.90;74.40
69261;DHT22;56378;52.404;20.816;2022-11-20T06:16:49;-3.90;74.80
69261;DHT22;56378;52.404;20.816;2022-11-20T06:19:15;-3.80;75.00
69261;DHT22;56378;52.404;20.816;2022-11-20T06:21:41;-3.80;74.90
69261;DHT22;56378;52.404;20.816;2022-11-20T06:24:08;-3.70;75.20
69261;DHT22;56378;52.404;20.816;2022-11-20T06:26:34;-3.60;75.30
69261;DHT22;56378;52.404;20.816;2022-11-20T06:29:00;-3.60;75.10
69261;DHT22;56378;52.404;20.816;2022-11-20T06:31:26;-3.60;75.40
69261;DHT22;56378;52.404;20.816;2022-11-20T06:33:52;-3.50;75.10
69261;DHT22;56378;52.404;20.816;2022-11-20T06:36:21;-3.40;75.10
69261;DHT22;56378;52.404;20.816;2022-11-20T06:38:47;-3.30;75.20
69261;DHT22;56378;52.404;20.816;2022-11-20T06:41:20;-3.30;75.00
69261;DHT22;56378;52.404;20.816;2022-11-20T06:43:46;-3.20;74.90
69261;DHT22;56378;52.404;20.816;2022-11-20T06:46:13;-3.20;74.60
69261;DHT22;56378;52.404;20.816;2022-11-20T06:48:40;-3.10;74.40
69261;DHT22;56378;52.404;20.816;2022-11-20T06:51:07;-3.10;74.40
69261;DHT22;56378;52.404;20.816;2022-11-20T06:53:33;-3.10;74.40
69261;DHT22;56378;52.404;20.816;2022-11-20T06:55:59;-3.10;74.30
69261;DHT22;56378;52.404;20.816;2022-11-20T06:58:30;-3.10;74.20
69261;DHT22;56378;52.404;20.816;2022-11-20T07:01:10;-3.10;74.50
69261;DHT22;56378;52.404;20.816;2022-11-20T07:03:36;-3.10;74.20
69261;DHT22;56378;52.404;20.816;2022-11-20T07:06:03;-3.10;74.40
69261;DHT22;56378;52.404;20.816;2022-11-20T07:08:32;-3.00;74.10
69261;DHT22;56378;52.404;20.816;2022-11-20T07:10:59;-3.00;73.80
69261;DHT22;56378;52.404;20.816;2022-11-20T07:13:26;-3.00;73.80
69261;DHT22;56378;52.404;20.816;2022-11-20T07:15:52;-3.10;73.80
69261;DHT22;56378;52.404;20.816;2022-11-20T07:18:18;-3.10;73.80
69261;DHT22;56378;52.404;20.816;2022-11-20T07:20:43;-3.10;74.00
69261;DHT22;56378;52.404;20.816;2022-11-20T07:23:09;-3.10;73.90
69261;DHT22;56378;52.404;20.816;2022-11-20T07:25:35;-3.10;73.70
69261;DHT22;56378;52.404;20.816;2022-11-20T07:28:02;-3.10;73.70
69261;DHT22;56378;52.404;20.816;2022-11-20T07:30:28;-3.10;73.90
69261;DHT22;56378;52.404;20.816;2022-11-20T07:32:54;-3.00;73.80
69261;DHT22;56378;52.404;20.816;2022-11-20T07:35:21;-3.00;73.70
69261;DHT22;56378;52.404;20.816;2022-11-20T07:37:47;-3.00;73.50
69261;DHT22;56378;52.404;20.816;2022-11-20T07:40:14;-2.90;73.50
69261;DHT22;56378;52.404;20.816;2022-11-20T07:42:51;-2.90;73.70
69261;DHT22;56378;52.404;20.816;2022-11-20T07:45:18;-2.90;73.40
69261;DHT22;56378;52.404;20.816;2022-11-20T07:47:44;-2.90;73.30
69261;DHT22;56378;52.404;20.816;2022-11-20T07:50:11;-2.80;73.20
69261;DHT22;56378;52.404;20.816;2022-11-20T07:52:37;-2.90;73.30
69261;DHT22;56378;52.404;20.816;2022-11-20T07:55:03;-2.90;73.40
69261;DHT22;56378;52.404;20.816;2022-11-20T07:57:28;-2.80;72.90
69261;DHT22;56378;52.404;20.816;2022-11-20T07:59:54;-2.80;73.00
69261;DHT22;56378;52.404;20.816;2022-11-20T08:02:20;-2.80;72.90
69261;DHT22;56378;52.404;20.816;2022-11-20T08:04:45;-2.80;72.90
69261;DHT22;56378;52.404;20.816;2022-11-20T08:07:11;-2.80;72.80
69261;DHT22;56378;52.404;20.816;2022-11-20T08:09:37;-2.70;73.10
69261;DHT22;56378;52.404;20.816;2022-11-20T08:12:03;-2.70;72.80
69261;DHT22;56378;52.404;20.816;2022-11-20T08:14:47;-2.70;72.80
69261;DHT22;56378;52.404;20.816;2022-11-20T08:17:13;-2.60;72.50
69261;DHT22;56378;52.404;20.816;2022-11-20T08:19:38;-2.60;72.50
69261;DHT22;56378;52.404;20.816;2022-11-20T08:22:04;-2.60;72.70
69261;DHT22;56378;52.404;20.816;2022-11-20T08:24:30;-2.50;72.80
69261;DHT22;56378;52.404;20.816;2022-11-20T08:26:58;-2.50;72.70
69261;DHT22;56378;52.404;20.816;2022-11-20T08:29:25;-2.50;72.60
69261;DHT22;56378;52.404;20.816;2022-11-20T08:31:51;-2.40;72.60
69261;DHT22;56378;52.404;20.816;2022-11-20T08:34:17;-2.30;72.60
69261;DHT22;56378;52.404;20.816;2022-11-20T08:36:43;-2.30;72.50
69261;DHT22;56378;52.404;20.816;2022-11-20T08:39:11;-2.30;72.50
69261;DHT22;56378;52.404;20.816;2022-11-20T08:41:37;-2.20;72.20
69261;DHT22;56378;52.404;20.816;2022-11-20T08:44:05;-2.20;71.90
69261;DHT22;56378;52.404;20.816;2022-11-20T08:46:34;-2.20;71.70
69261;DHT22;56378;52.404;20.816;2022-11-20T08:49:03;-2.20;71.90
69261;DHT22;56378;52.404;20.816;2022-11-20T08:51:29;-2.20;71.70
69261;DHT22;56378;52.404;20.816;2022-11-20T08:53:54;-2.10;71.60
69261;DHT22;56378;52.404;20.816;2022-11-20T08:56:20;-2.10;71.40
69261;DHT22;56378;52.404;20.816;2022-11-20T08:58:55;-2.10;71.70
69261;DHT22;56378;52.404;20.816;2022-11-20T09:01:24;-2.10;71.70
69261;DHT22;56378;52.404;20.816;2022-11-20T09:03:50;-2.10;71.70
69261;DHT22;56378;52.404;20.816;2022-11-20T09:06:16;-2.00;71.40
69261;DHT22;56378;52.404;20.816;2022-11-20T09:08:42;-2.00;71.60
69261;DHT22;56378;52.404;20.816;2022-11-20T09:11:11;-2.00;71.60
69261;DHT22;56378;52.404;20.816;2022-11-20T09:13:37;-1.90;71.30
69261;DHT22;56378;52.404;20.816;2022-11-20T09:16:06;-1.90;70.90
69261;DHT22;56378;52.404;20.816;2022-11-20T09:18:34;-1.90;71.00
69261;DHT22;56378;52.404;20.816;2022-11-20T09:21:04;-1.90;70.60
69261;DHT22;56378;52.404;20.816;2022-11-20T09:23:35;-1.90;70.90
69261;DHT22;56378;52.404;20.816;2022-11-20T09:26:17;-1.80;71.10
69261;DHT22;56378;52.404;20.816;2022-11-20T09:28:46;-1.80;71.10
69261;DHT22;56378;52.404;20.816;2022-11-20T09:31:22;-1.80;71.00
69261;DHT22;56378;52.404;20.816;2022-11-20T09:33:48;-1.80;71.10
69261;DHT22;56378;52.404;20.816;2022-11-20T09:36:24;-1.80;71.00
69261;DHT22;56378;52.404;20.816;2022-11-20T09:38:52;-1.80;70.90
69261;DHT22;56378;52.404;20.816;2022-11-20T09:50:33;-1.50;71.20
69261;DHT22;56378;52.404;20.816;2022-11-20T09:55:45;-1.40;70.90
69261;DHT22;56378;52.404;20.816;2022-11-20T09:58:21;-1.30;70.90
69261;DHT22;56378;52.404;20.816;2022-11-20T10:00:51;-1.30;70.80
69261;DHT22;56378;52.404;20.816;2022-11-20T10:03:21;-1.30;70.50
69261;DHT22;56378;52.404;20.816;2022-11-20T10:05:54;-1.20;70.60
69261;DHT22;56378;52.404;20.816;2022-11-20T10:08:27;-1.20;70.40
69261;DHT22;56378;52.404;20.816;2022-11-20T10:11:18;-1.20;70.60
69261;DHT22;56378;52.404;20.816;2022-11-20T10:16:28;-1.20;70.40
69261;DHT22;56378;52.404;20.816;2022-11-20T10:30:28;-1.10;70.60
69261;DHT22;56378;52.404;20.816;2022-11-20T10:33:01;-1.20;70.30
69261;DHT22;56378;52.404;20.816;2022-11-20T10:35:50;-1.10;70.40
69261;DHT22;56378;52.404;20.816;2022-11-20T10:38:25;-1.20;70.70
69261;DHT22;56378;52.404;20.816;2022-11-20T10:40:58;-1.10;70.60
69261;DHT22;56378;52.404;20.816;2022-11-20T10:43:46;-1.10;70.50
69261;DHT22;56378;52.404;20.816;2022-11-20T10:46:22;-1.10;70.50
69261;DHT22;56378;52.404;20.816;2022-11-20T10:48:49;-1.10;70.60
69261;DHT22;56378;52.404;20.816;2022-11-20T10:55:04;-1.10;70.80
69261;DHT22;56378;52.404;20.816;2022-11-20T10:57:53;-1.00;70.70
69261;DHT22;56378;52.404;20.816;2022-11-20T11:00:20;-1.00;70.40
69261;DHT22;56378;52.404;20.816;2022-11-20T11:02:53;-0.90;70.50
69261;DHT22;56378;52.404;20.816;2022-11-20T11:08:50;-0.90;70.50
69261;DHT22;56378;52.404;20.816;2022-11-20T11:24:52;-0.80;70.20
69261;DHT22;56378;52.404;20.816;2022-11-20T11:27:17;-0.70;70.30
69261;DHT22;56378;52.404;20.816;2022-11-20T11:29:44;-0.70;70.30
69261;DHT22;56378;52.404;20.816;2022-11-20T11:35:50;-0.70;70.40
69261;DHT22;56378;52.404;20.816;2022-11-20T11:38:38;-0.60;70.30
69261;DHT22;56378;52.404;20.816;2022-11-20T11:41:23;-0.60;70.40
69261;DHT22;56378;52.404;20.816;2022-11-20T11:44:14;-0.60;70.30
69261;DHT22;56378;52.404;20.816;2022-11-20T11:47:00;-0.50;70.10
69261;DHT22;56378;52.404;20.816;2022-11-20T11:49:26;-0.50;69.90
69261;DHT22;56378;52.404;20.816;2022-11-20T12:04:44;-0.40;69.80
69261;DHT22;56378;52.404;20.816;2022-11-20T12:07:44;-0.40;69.60
69261;DHT22;56378;52.404;20.816;2022-11-20T12:10:38;-0.30;69.40
69261;DHT22;56378;52.404;20.816;2022-11-20T12:15:46;-0.30;69.40
69261;DHT22;56378;52.404;20.816;2022-11-20T12:18:24;-0.30;69.50
69261;DHT22;56378;52.404;20.816;2022-11-20T12:29:02;-0.20;69.30
69261;DHT22;56378;52.404;20.816;2022-11-20T12:35:25;-0.20;69.00
69261;DHT22;56378;52.404;20.816;2022-11-20T12:43:56;-0.20;68.90
69261;DHT22;56378;52.404;20.816;2022-11-20T12:46:49;-0.20;68.90
69261;DHT22;56378;52.404;20.816;2022-11-20T12:49:29;-0.20;68.80
69261;DHT22;56378;52.404;20.816;2022-11-20T13:07:17;-0.10;69.10
69261;DHT22;56378;52.404;20.816;2022-11-20T13:16:54;-0.10;69.00
69261;DHT22;56378;52.404;20.816;2022-11-20T13:19:26;0.00;68.90
69261;DHT22;56378;52.404;20.816;2022-11-20T13:21:54;-0.10;69.00
69261;DHT22;56378;52.404;20.816;2022-11-20T13:24:20;-0.10;69.00
69261;DHT22;56378;52.404;20.816;2022-11-20T13:29:47;-0.10;69.30
69261;DHT22;56378;52.404;20.816;2022-11-20T13:32:24;-0.10;69.10
69261;DHT22;56378;52.404;20.816;2022-11-20T13:34:58;-0.10;69.10
69261;DHT22;56378;52.404;20.816;2022-11-20T13:37:30;0.00;69.20
69261;DHT22;56378;52.404;20.816;2022-11-20T13:40:13;0.00;69.00
69261;DHT22;56378;52.404;20.816;2022-11-20T13:42:44;0.00;69.00
69261;DHT22;56378;52.404;20.816;2022-11-20T13:45:29;0.00;69.20
69261;DHT22;56378;52.404;20.816;2022-11-20T13:47:56;0.00;69.20
69261;DHT22;56378;52.404;20.816;2022-11-20T13:56:54;0.00;69.40
69261;DHT22;56378;52.404;20.816;2022-11-20T14:01:48;-0.10;69.80
69261;DHT22;56378;52.404;20.816;2022-11-20T14:04:20;-0.10;69.80
69261;DHT22;56378;52.404;20.816;2022-11-20T14:06:50;-0.10;69.80
69261;DHT22;56378;52.404;20.816;2022-11-20T14:09:29;-0.10;70.00
69261;DHT22;56378;52.404;20.816;2022-11-20T14:11:56;-0.10;69.90
69261;DHT22;56378;52.404;20.816;2022-11-20T14:14:24;-0.10;70.00
69261;DHT22;56378;52.404;20.816;2022-11-20T14:16:53;-0.10;70.10
69261;DHT22;56378;52.404;20.816;2022-11-20T14:19:31;-0.10;70.00
69261;DHT22;56378;52.404;20.816;2022-11-20T14:22:24;-0.10;70.00
69261;DHT22;56378;52.404;20.816;2022-11-20T14:25:03;-0.10;70.10
69261;DHT22;56378;52.404;20.816;2022-11-20T14:27:34;-0.10;70.20
69261;DHT22;56378;52.404;20.816;2022-11-20T14:30:02;-0.20;70.40
69261;DHT22;56378;52.404;20.816;2022-11-20T14:32:29;-0.20;70.40
69261;DHT22;56378;52.404;20.816;2022-11-20T14:34:59;-0.20;70.40
69261;DHT22;56378;52.404;20.816;2022-11-20T14:37:31;-0.20;70.50
69261;DHT22;56378;52.404;20.816;2022-11-20T14:39:58;-0.20;70.50
69261;DHT22;56378;52.404;20.816;2022-11-20T14:42:28;-0.20;70.40
69261;DHT22;56378;52.404;20.816;2022-11-20T14:44:59;-0.20;70.60
69261;DHT22;56378;52.404;20.816;2022-11-20T14:47:27;-0.20;70.60
69261;DHT22;56378;52.404;20.816;2022-11-20T14:49:55;-0.30;70.90
69261;DHT22;56378;52.404;20.816;2022-11-20T14:52:27;-0.30;71.10
69261;DHT22;56378;52.404;20.816;2022-11-20T14:54:58;-0.30;71.20
69261;DHT22;56378;52.404;20.816;2022-11-20T14:57:29;-0.40;71.30
69261;DHT22;56378;52.404;20.816;2022-11-20T15:02:30;-0.40;71.50
69261;DHT22;56378;52.404;20.816;2022-11-20T15:04:58;-0.40;71.60
69261;DHT22;56378;52.404;20.816;2022-11-20T15:07:26;-0.40;72.00
69261;DHT22;56378;52.404;20.816;2022-11-20T15:12:26;-0.50;72.70
69261;DHT22;56378;52.404;20.816;2022-11-20T15:15:01;-0.50;73.30
69261;DHT22;56378;52.404;20.816;2022-11-20T15:17:28;-0.50;73.60
69261;DHT22;56378;52.404;20.816;2022-11-20T15:19:54;-0.50;73.90
69261;DHT22;56378;52.404;20.816;2022-11-20T15:22:21;-0.50;74.00
69261;DHT22;56378;52.404;20.816;2022-11-20T15:24:46;-0.50;74.10
69261;DHT22;56378;52.404;20.816;2022-11-20T15:27:12;-0.50;74.20
69261;DHT22;56378;52.404;20.816;2022-11-20T15:29:38;-0.50;74.40
69261;DHT22;56378;52.404;20.816;2022-11-20T15:32:04;-0.50;74.70
69261;DHT22;56378;52.404;20.816;2022-11-20T15:34:29;-0.50;74.70
69261;DHT22;56378;52.404;20.816;2022-11-20T15:36:55;-0.50;74.50
69261;DHT22;56378;52.404;20.816;2022-11-20T15:39:21;-0.50;74.70
69261;DHT22;56378;52.404;20.816;2022-11-20T15:41:49;-0.60;74.80
69261;DHT22;56378;52.404;20.816;2022-11-20T15:44:14;-0.60;74.80
69261;DHT22;56378;52.404;20.816;2022-11-20T15:46:41;-0.60;74.80
69261;DHT22;56378;52.404;20.816;2022-11-20T15:49:14;-0.60;75.00
69261;DHT22;56378;52.404;20.816;2022-11-20T15:51:43;-0.60;75.20
69261;DHT22;56378;52.404;20.816;2022-11-20T15:54:17;-0.60;75.00
69261;DHT22;56378;52.404;20.816;2022-11-20T15:56:48;-0.70;75.10
69261;DHT22;56378;52.404;20.816;2022-11-20T15:59:14;-0.70;75.20
69261;DHT22;56378;52.404;20.816;2022-11-20T16:01:41;-0.70;75.20
69261;DHT22;56378;52.404;20.816;2022-11-20T16:04:11;-0.80;75.20
69261;DHT22;56378;52.404;20.816;2022-11-20T16:06:37;-0.80;75.60
69261;DHT22;56378;52.404;20.816;2022-11-20T16:09:03;-0.90;75.70
69261;DHT22;56378;52.404;20.816;2022-11-20T16:11:29;-0.90;76.10
69261;DHT22;56378;52.404;20.816;2022-11-20T16:13:55;-0.90;76.30
69261;DHT22;56378;52.404;20.816;2022-11-20T16:16:39;-0.90;76.60
69261;DHT22;56378;52.404;20.816;2022-11-20T16:19:12;-0.90;76.70
69261;DHT22;56378;52.404;20.816;2022-11-20T16:21:39;-0.90;76.90
69261;DHT22;56378;52.404;20.816;2022-11-20T16:24:09;-0.90;77.00
69261;DHT22;56378;52.404;20.816;2022-11-20T16:26:36;-0.80;77.00
69261;DHT22;56378;52.404;20.816;2022-11-20T16:29:04;-0.80;77.10
69261;DHT22;56378;52.404;20.816;2022-11-20T16:31:30;-0.80;77.10
69261;DHT22;56378;52.404;20.816;2022-11-20T16:34:00;-0.80;77.30
69261;DHT22;56378;52.404;20.816;2022-11-20T16:36:27;-0.80;77.20
69261;DHT22;56378;52.404;20.816;2022-11-20T16:38:55;-0.70;77.10
69261;DHT22;56378;52.404;20.816;2022-11-20T16:41:22;-0.80;77.10
69261;DHT22;56378;52.404;20.816;2022-11-20T16:43:50;-0.70;76.90
69261;DHT22;56378;52.404;20.816;2022-11-20T16:46:21;-0.80;76.70
69261;DHT22;56378;52.404;20.816;2022-11-20T16:49:04;-0.80;76.40
69261;DHT22;56378;52.404;20.816;2022-11-20T16:51:33;-0.90;76.40
69261;DHT22;56378;52.404;20.816;2022-11-20T16:54:06;-1.00;76.80
69261;DHT22;56378;52.404;20.816;2022-11-20T16:56:32;-1.00;77.10
69261;DHT22;56378;52.404;20.816;2022-11-20T16:58:59;-1.00;76.90
69261;DHT22;56378;52.404;20.816;2022-11-20T17:01:26;-1.10;77.30
69261;DHT22;56378;52.404;20.816;2022-11-20T17:04:01;-1.20;77.40
69261;DHT22;56378;52.404;20.816;2022-11-20T17:06:29;-1.30;77.80
69261;DHT22;56378;52.404;20.816;2022-11-20T17:08:56;-1.30;78.00
69261;DHT22;56378;52.404;20.816;2022-11-20T17:11:22;-1.30;78.10
69261;DHT22;56378;52.404;20.816;2022-11-20T17:13:48;-1.40;78.60
69261;DHT22;56378;52.404;20.816;2022-11-20T17:16:22;-1.40;78.70
69261;DHT22;56378;52.404;20.816;2022-11-20T17:18:48;-1.40;78.80
69261;DHT22;56378;52.404;20.816;2022-11-20T17:21:16;-1.40;78.70
69261;DHT22;56378;52.404;20.816;2022-11-20T17:23:43;-1.50;79.20
69261;DHT22;56378;52.404;20.816;2022-11-20T17:26:11;-1.40;79.40
69261;DHT22;56378;52.404;20.816;2022-11-20T17:28:45;-1.40;79.40
69261;DHT22;56378;52.404;20.816;2022-11-20T17:31:13;-1.40;79.40
69261;DHT22;56378;52.404;20.816;2022-11-20T17:33:41;-1.30;79.10
69261;DHT22;56378;52.404;20.816;2022-11-20T17:36:08;-1.30;79.10